ADDS METAR Data INFO
IDs: Format: Raw Decoded Include TAF

Data at: 1747 UTC 21 Oct 2017

KWDR 211735Z AUTO 20006KT 10SM CLR 25/11 A3032 RMK AO1
KWDR 211715Z AUTO 20005KT 10SM CLR 25/11 A3033 RMK AO1
KWDR 211655Z AUTO 17004KT 10SM CLR 23/11 A3034 RMK AO1
KWDR 211635Z AUTO 00000KT 10SM CLR 22/13 A3035 RMK AO1
KWDR 211615Z AUTO 00000KT 10SM CLR 22/13 A3035 RMK AO1
KWDR 211555Z AUTO 00000KT 10SM CLR 21/13 A3035 RMK AO1
KWDR 211535Z AUTO 00000KT 10SM CLR 20/11 A3035 RMK AO1
KWDR 211515Z AUTO 00000KT 10SM CLR 18/11 A3035 RMK AO1
KWDR 211455Z AUTO 00000KT 10SM CLR 18/11 A3036 RMK AO1
KWDR 211435Z AUTO 00000KT 10SM CLR 17/11 A3035 RMK AO1
KWDR 211415Z AUTO 00000KT 10SM CLR 16/11 A3036 RMK AO1
KWDR 211355Z AUTO 12003KT 10SM CLR 15/10 A3036 RMK AO1
KWDR 211335Z AUTO 11003KT 10SM CLR 14/10 A3035 RMK AO1
KWDR 211315Z AUTO 00000KT 10SM CLR 12/09 A3034 RMK AO1
KWDR 211255Z AUTO 00000KT 10SM CLR 12/10 A3034 RMK AO1
KWDR 211235Z AUTO 00000KT 10SM CLR 11/09 A3033 RMK AO1
KWDR 211215Z AUTO 08003KT 10SM CLR 10/08 A3033 RMK AO1
KWDR 211155Z AUTO 00000KT 10SM CLR 10/08 A3032 RMK AO1
KWDR 211135Z AUTO 00000KT 10SM CLR 10/08 A3032 RMK AO1
KWDR 211115Z AUTO 09003KT 10SM CLR 10/08 A3031 RMK AO1
KWDR 211055Z AUTO 00000KT 10SM CLR 10/09 A3031 RMK AO1
KWDR 211035Z AUTO 09003KT 10SM CLR 10/08 A3030 RMK AO1
KWDR 211015Z AUTO 00000KT 10SM CLR 10/08 A3030 RMK AO1
KWDR 210955Z AUTO 00000KT 5SM BR CLR 10/09 A3029 RMK AO1
KWDR 210935Z AUTO 00000KT 10SM CLR 11/09 A3028 RMK AO1
KWDR 210915Z AUTO 09003KT 10SM CLR 11/09 A3028 RMK AO1
KWDR 210855Z AUTO 09003KT 10SM CLR 11/09 A3027 RMK AO1
KWDR 210835Z AUTO 08003KT 10SM CLR 11/09 A3027 RMK AO1
KWDR 210815Z AUTO 08003KT 10SM CLR 11/09 A3027 RMK AO1
KWDR 210755Z AUTO 00000KT 10SM CLR 11/09 A3027 RMK AO1
KWDR 210735Z AUTO 08003KT 10SM CLR 11/09 A3027 RMK AO1
KWDR 210715Z AUTO 00000KT 10SM CLR 11/10 A3027 RMK AO1
KWDR 210655Z AUTO 08003KT 10SM CLR 11/10 A3027 RMK AO1
KWDR 210635Z AUTO 00000KT 10SM CLR 11/09 A3027 RMK AO1
KWDR 210615Z AUTO 00000KT 10SM CLR 11/09 A3026 RMK AO1
KWDR 210555Z AUTO 00000KT 10SM CLR 12/09 A3026 RMK AO1
KWDR 210535Z AUTO 00000KT 10SM CLR 11/09 A3026 RMK AO1
KWDR 210515Z AUTO 10003KT 10SM CLR 12/09 A3026 RMK AO1
KWDR 210455Z AUTO 08003KT 10SM CLR 12/09 A3026 RMK AO1
KWDR 210435Z AUTO 00000KT 10SM CLR 12/09 A3026 RMK AO1
KWDR 210415Z AUTO 00000KT 10SM CLR 12/09 A3027 RMK AO1
KWDR 210355Z AUTO 00000KT 10SM CLR 13/09 A3027 RMK AO1
KWDR 210335Z AUTO 00000KT 10SM CLR 13/09 A3026 RMK AO1
KWDR 210315Z AUTO 00000KT 10SM CLR 13/09 A3026 RMK AO1
KWDR 210255Z AUTO 00000KT 10SM CLR 14/10 A3026 RMK AO1
KWDR 210235Z AUTO 00000KT 10SM CLR 14/10 A3026 RMK AO1
KWDR 210215Z AUTO 00000KT 10SM CLR 15/10 A3025 RMK AO1
KWDR 210155Z AUTO 00000KT 10SM CLR 15/10 A3025 RMK AO1
KWDR 210135Z AUTO 00000KT 10SM CLR 15/10 A3025 RMK AO1
KWDR 210115Z AUTO 00000KT 10SM CLR 15/10 A3025 RMK AO1
KWDR 210055Z AUTO 00000KT 10SM CLR 16/10 A3025 RMK AO1
KWDR 210035Z AUTO 00000KT 10SM CLR 16/10 A3024 RMK AO1
KWDR 210015Z AUTO 00000KT 10SM CLR 17/10 A3024 RMK AO1
KWDR 202355Z AUTO 00000KT 10SM CLR 18/09 A3023 RMK AO1
KWDR 202335Z AUTO 00000KT 10SM CLR 18/09 A3023 RMK AO1
KWDR 202315Z AUTO 00000KT 10SM CLR 19/08 A3023 RMK AO1
KWDR 202255Z AUTO 00000KT 10SM CLR 21/08 A3022 RMK AO1
KWDR 202235Z AUTO 00000KT 10SM CLR 22/07 A3022 RMK AO1
KWDR 202215Z AUTO 00000KT 10SM CLR 24/05 A3022 RMK AO1
KWDR 202155Z AUTO 00000KT 10SM CLR 25/05 A3022 RMK AO1
KWDR 202135Z AUTO 20003KT 10SM CLR 26/04 A3022 RMK AO1
KWDR 202115Z AUTO 20003KT 10SM CLR 26/04 A3022 RMK AO1
KWDR 202055Z AUTO 20003KT 10SM CLR 26/04 A3022 RMK AO1
KWDR 202035Z AUTO 20003KT 10SM CLR 26/03 A3023 RMK AO1
KWDR 202015Z AUTO 00000KT 10SM CLR 27/03 A3023 RMK AO1
KWDR 201955Z AUTO 17003KT 10SM CLR 26/02 A3023 RMK AO1
KWDR 201935Z AUTO 19003KT 10SM CLR 27/05 A3023 RMK AO1
KWDR 201915Z AUTO 00000KT 10SM CLR 26/05 A3024 RMK AO1
KWDR 201855Z AUTO 00000KT 10SM CLR 26/05 A3025 RMK AO1
KWDR 201835Z AUTO 00000KT 10SM CLR 26/05 A3025 RMK AO1
KWDR 201815Z AUTO 00000KT 10SM CLR 25/05 A3027 RMK AO1
KWDR 201755Z AUTO 00000KT 10SM CLR 25/06 A3028 RMK AO1
KWDR 201735Z AUTO 00000KT 10SM CLR 25/07 A3028 RMK AO1
KWDR 201715Z AUTO 23003KT 10SM CLR 24/07 A3030 RMK AO1
KWDR 201655Z AUTO 00000KT 10SM CLR 23/07 A3031 RMK AO1
KWDR 201635Z AUTO 00000KT 10SM CLR 23/07 A3031 RMK AO1
KWDR 201615Z AUTO 00000KT 10SM CLR 23/08 A3032 RMK AO1
KWDR 201555Z AUTO 00000KT 10SM CLR 22/09 A3032 RMK AO1
KWDR 201535Z AUTO 00000KT 10SM CLR 22/09 A3032 RMK AO1
KWDR 201515Z AUTO 00000KT 10SM CLR 21/09 A3032 RMK AO1
KWDR 201455Z AUTO 00000KT 10SM CLR 20/10 A3033 RMK AO1
KWDR 201435Z AUTO 00000KT 10SM CLR 19/10 A3033 RMK AO1
KWDR 201415Z AUTO 00000KT 10SM CLR 17/11 A3034 RMK AO1
KWDR 201355Z AUTO 00000KT 10SM CLR 16/10 A3033 RMK AO1
KWDR 201335Z AUTO 00000KT 10SM CLR 15/10 A3033 RMK AO1
KWDR 201315Z AUTO 00000KT 10SM CLR 13/10 A3033 RMK AO1
KWDR 201255Z AUTO 00000KT 10SM CLR 11/08 A3032 RMK AO1
KWDR 201235Z AUTO 00000KT 10SM CLR 09/07 A3032 RMK AO1
KWDR 201215Z AUTO 00000KT 10SM CLR 08/06 A3032 RMK AO1
KWDR 201155Z AUTO 00000KT 10SM CLR 08/06 A3031 RMK AO1
KWDR 201135Z AUTO 00000KT 10SM CLR 08/06 A3031 RMK AO1
KWDR 201115Z AUTO 00000KT 10SM CLR 07/06 A3031 RMK AO1
KWDR 201055Z AUTO 00000KT 10SM CLR 07/06 A3030 RMK AO1
KWDR 201035Z AUTO 04003KT 10SM CLR 07/06 A3030 RMK AO1
KWDR 201015Z AUTO 00000KT 10SM CLR 07/06 A3030 RMK AO1
KWDR 200955Z AUTO 05003KT 10SM CLR 08/07 A3029 RMK AO1
KWDR 200935Z AUTO 05003KT 10SM CLR 07/07 A3028 RMK AO1
KWDR 200915Z AUTO 05003KT 10SM CLR 08/06 A3028 RMK AO1
KWDR 200855Z AUTO 06003KT 10SM CLR 07/06 A3028 RMK AO1
KWDR 200835Z AUTO 07003KT 10SM CLR 08/07 A3028 RMK AO1
KWDR 200815Z AUTO 00000KT 10SM CLR 08/06 A3028 RMK AO1
KWDR 200755Z AUTO 00000KT 10SM CLR 08/07 A3028 RMK AO1
KWDR 200735Z AUTO 00000KT 10SM CLR 08/07 A3028 RMK AO1
KWDR 200715Z AUTO 00000KT 10SM CLR 09/07 A3028 RMK AO1
KWDR 200655Z AUTO 00000KT 10SM CLR 08/07 A3029 RMK AO1
KWDR 200635Z AUTO 00000KT 10SM CLR 10/07 A3029 RMK AO1
KWDR 200615Z AUTO 08003KT 10SM CLR 10/07 A3029 RMK AO1
KWDR 200555Z AUTO 00000KT 10SM CLR 10/07 A3029 RMK AO1